Time;durP1;ratioP1;P1;durP2;ratioP2;P2;SDS_P1;SDS_P2;PMS_P1;PMS_P2;Temp;Humidity;BMP_temperature;BMP_pressure;BME280_temperature;BME280_humidity;BME280_pressure;Samples;Min_cycle;Max_cycle;Signal;HPM_P1;HPM_P2
2023/06/10 00:01:16;;;;;;;2.20;2.20;;;23.30;66.40;;;;;;5109567;28;43412;-68
2023/06/10 00:03:44;;;;;;;2.40;2.40;;;23.30;66.20;;;;;;5109739;27;43771;-68
2023/06/10 00:06:12;;;;;;;2.50;2.50;;;23.40;66.00;;;;;;5109872;28;43423;-68
2023/06/10 00:08:41;;;;;;;2.30;2.30;;;23.50;65.60;;;;;;5109967;27;43680;-68
2023/06/10 00:11:10;;;;;;;2.30;2.30;;;23.60;65.40;;;;;;5108549;27;43395;-68
2023/06/10 00:13:38;;;;;;;2.40;2.40;;;23.60;65.20;;;;;;5109867;28;43383;-68
2023/06/10 00:16:06;;;;;;;2.30;2.30;;;23.60;65.30;;;;;;5109359;27;43483;-68
2023/06/10 00:18:36;;;;;;;2.40;2.40;;;23.50;65.40;;;;;;5108498;28;43860;-68
2023/06/10 00:21:04;;;;;;;2.47;2.47;;;23.50;65.70;;;;;;5108796;27;43496;-68
2023/06/10 00:23:38;;;;;;;2.20;2.20;;;23.40;65.70;;;;;;5105365;27;43395;-68
2023/06/10 00:26:06;;;;;;;2.10;2.10;;;23.40;65.80;;;;;;5106557;28;43427;-68
2023/06/10 00:28:34;;;;;;;2.33;2.23;;;23.40;65.90;;;;;;5110731;27;43929;-68
2023/06/10 00:31:02;;;;;;;2.10;2.10;;;23.30;66.00;;;;;;5109100;27;43407;-67
2023/06/10 00:33:30;;;;;;;2.30;2.30;;;23.30;66.80;;;;;;5108748;28;43784;-67
2023/06/10 00:36:00;;;;;;;2.17;2.17;;;23.30;66.10;;;;;;5109204;28;43332;-68
2023/06/10 00:38:28;;;;;;;2.40;2.40;;;23.30;66.00;;;;;;5109688;27;43848;-68
2023/06/10 00:40:56;;;;;;;2.50;2.30;;;23.30;66.30;;;;;;5109703;27;43412;-69
2023/06/10 00:43:25;;;;;;;2.30;2.30;;;23.30;66.30;;;;;;5101839;28;43401;-69
2023/06/10 00:45:53;;;;;;;2.20;2.10;;;23.30;66.30;;;;;;5107056;27;43466;-69
2023/06/10 00:48:21;;;;;;;2.30;2.30;;;23.30;66.20;;;;;;5108641;28;43590;-68
2023/06/10 00:50:49;;;;;;;2.40;2.40;;;23.30;66.30;;;;;;5109138;27;43394;-68
2023/06/10 00:53:18;;;;;;;2.50;2.50;;;23.20;66.40;;;;;;5108877;27;43499;-69
2023/06/10 00:55:46;;;;;;;2.07;2.07;;;23.30;66.30;;;;;;5111851;27;43496;-69
2023/06/10 00:58:14;;;;;;;2.13;2.13;;;23.40;66.20;;;;;;5101578;27;44591;-69
2023/06/10 01:00:42;;;;;;;2.40;2.40;;;23.50;65.80;;;;;;5107564;27;44372;-69
2023/06/10 01:03:10;;;;;;;2.20;2.20;;;23.60;65.40;;;;;;5105484;27;43411;-68
2023/06/10 01:05:38;;;;;;;2.27;2.27;;;23.60;65.20;;;;;;5107137;27;43411;-68
2023/06/10 01:08:11;;;;;;;2.30;2.30;;;23.60;65.00;;;;;;5107692;28;43599;-68
2023/06/10 01:10:43;;;;;;;2.40;2.40;;;23.60;65.20;;;;;;5106232;27;43526;-69
2023/06/10 01:13:12;;;;;;;2.37;2.37;;;23.50;65.50;;;;;;5107005;28;43401;-69
2023/06/10 01:15:40;;;;;;;2.20;2.20;;;23.50;65.60;;;;;;5107953;28;43559;-69
2023/06/10 01:18:14;;;;;;;2.10;2.10;;;23.50;65.60;;;;;;5106803;27;44849;-67
2023/06/10 01:20:47;;;;;;;2.47;2.47;;;23.40;65.60;;;;;;5106839;28;44383;-68
2023/06/10 01:23:19;;;;;;;2.33;2.33;;;23.40;66.00;;;;;;5107370;28;43489;-67
2023/06/10 01:25:54;;;;;;;2.33;2.23;;;23.40;66.00;;;;;;5109133;28;43393;-67
2023/06/10 01:28:25;;;;;;;2.53;2.43;;;23.40;66.10;;;;;;5099236;28;44917;-68
2023/06/10 01:31:08;;;;;;;2.30;2.30;;;23.30;65.90;;;;;;5108705;27;43976;-68
2023/06/10 01:33:37;;;;;;;2.53;2.53;;;23.30;66.30;;;;;;5110826;27;43335;-68
2023/06/10 01:36:05;;;;;;;2.37;2.37;;;23.30;66.30;;;;;;5107266;27;43506;-68
2023/06/10 01:38:37;;;;;;;2.60;2.60;;;23.30;66.00;;;;;;5108291;28;43777;-68
2023/06/10 01:41:05;;;;;;;2.40;2.40;;;23.40;65.80;;;;;;5106891;28;43386;-68
2023/06/10 01:43:34;;;;;;;2.30;2.30;;;23.60;65.60;;;;;;5103579;28;43387;-68
2023/06/10 01:46:02;;;;;;;2.37;2.37;;;23.60;65.30;;;;;;5108518;27;43381;-68
2023/06/10 01:48:30;;;;;;;2.53;2.53;;;23.60;65.20;;;;;;5107781;28;43846;-68
2023/06/10 01:50:58;;;;;;;2.30;2.30;;;23.50;65.10;;;;;;5104374;28;43401;-68
2023/06/10 01:53:26;;;;;;;2.60;2.60;;;23.50;65.60;;;;;;5107810;28;43370;-68
2023/06/10 01:55:55;;;;;;;2.40;2.40;;;23.50;65.80;;;;;;5107553;27;43431;-68
2023/06/10 01:58:23;;;;;;;2.30;2.30;;;23.40;65.70;;;;;;5106656;28;45976;-68
2023/06/10 02:00:51;;;;;;;2.20;2.20;;;23.40;65.80;;;;;;5107503;27;43441;-67
2023/06/10 02:03:19;;;;;;;2.23;2.23;;;23.40;66.00;;;;;;5105726;27;43420;-68
2023/06/10 02:05:48;;;;;;;2.00;2.00;;;23.40;66.20;;;;;;5107234;28;43493;-68
2023/06/10 02:08:16;;;;;;;2.30;2.30;;;23.40;66.10;;;;;;5107603;27;43828;-67
2023/06/10 02:10:44;;;;;;;2.23;2.23;;;23.30;66.10;;;;;;5105282;27;43728;-67
2023/06/10 02:13:13;;;;;;;2.30;2.30;;;23.30;66.90;;;;;;5108192;27;43385;-69
2023/06/10 02:15:41;;;;;;;2.00;2.00;;;23.30;66.40;;;;;;5108250;27;43336;-69
2023/06/10 02:18:11;;;;;;;2.40;2.40;;;23.30;66.30;;;;;;5107097;27;43606;-69
2023/06/10 02:20:39;;;;;;;2.40;2.40;;;23.40;66.10;;;;;;5107184;27;43394;-68
2023/06/10 02:23:07;;;;;;;2.43;2.43;;;23.50;65.80;;;;;;5107055;27;43428;-68
2023/06/10 02:25:36;;;;;;;2.43;2.43;;;23.60;65.50;;;;;;5102809;28;43481;-68
2023/06/10 02:28:05;;;;;;;2.20;2.20;;;23.60;65.30;;;;;;5106757;27;43615;-69
2023/06/10 02:30:34;;;;;;;2.23;2.23;;;23.60;65.20;;;;;;5106177;28;43438;-67
2023/06/10 02:33:02;;;;;;;2.30;2.30;;;23.50;65.30;;;;;;5105686;27;43473;-68
2023/06/10 02:35:31;;;;;;;2.30;2.30;;;23.50;65.80;;;;;;5106773;28;43446;-68
2023/06/10 02:37:59;;;;;;;2.20;2.20;;;23.40;65.70;;;;;;5104292;28;45692;-68
2023/06/10 02:40:27;;;;;;;2.30;2.30;;;23.40;65.70;;;;;;5121038;27;43456;-68
2023/06/10 02:42:56;;;;;;;2.30;2.10;;;23.40;65.80;;;;;;5106418;28;43411;-68
2023/06/10 02:45:25;;;;;;;2.20;2.20;;;23.40;66.20;;;;;;5107866;27;43514;-68
2023/06/10 02:47:55;;;;;;;2.30;2.30;;;23.30;66.10;;;;;;5105878;28;46015;-68
2023/06/10 02:50:23;;;;;;;2.20;2.20;;;23.40;66.20;;;;;;5114284;27;44790;-68
2023/06/10 02:53:23;;;;;;;2.50;2.50;;;23.30;66.00;;;;;;5106379;27;43399;-68
2023/06/10 02:55:57;;;;;;;2.20;2.20;;;23.30;66.30;;;;;;5105635;28;43425;-68
2023/06/10 02:58:26;;;;;;;2.70;2.70;;;23.30;66.30;;;;;;5105236;28;43869;-67
2023/06/10 03:00:55;;;;;;;2.50;2.50;;;23.40;66.30;;;;;;5105943;28;44684;-67
2023/06/10 03:03:25;;;;;;;2.40;2.40;;;23.50;65.80;;;;;;5105030;27;43339;-68
2023/06/10 03:06:01;;;;;;;2.30;2.30;;;23.60;65.50;;;;;;5105448;28;43844;-69
2023/06/10 03:08:30;;;;;;;2.30;2.30;;;23.60;65.30;;;;;;5106367;27;45408;-69
2023/06/10 03:11:01;;;;;;;2.30;2.30;;;23.60;65.20;;;;;;5104415;28;44535;-69
2023/06/10 03:13:30;;;;;;;2.40;2.40;;;23.50;65.20;;;;;;5102622;28;44012;-69
2023/06/10 03:15:58;;;;;;;2.60;2.60;;;23.50;65.80;;;;;;5106645;28;43965;-69
2023/06/10 03:18:29;;;;;;;2.50;2.50;;;23.50;65.90;;;;;;5105368;28;44969;-68
2023/06/10 03:20:57;;;;;;;2.37;2.37;;;23.40;65.80;;;;;;5103380;28;43402;-68
2023/06/10 03:23:28;;;;;;;2.40;2.40;;;23.40;65.80;;;;;;5105242;28;43379;-68
2023/06/10 03:25:56;;;;;;;2.30;2.30;;;23.40;66.20;;;;;;5106053;27;43707;-68
2023/06/10 03:28:25;;;;;;;2.30;2.30;;;23.40;66.20;;;;;;5115250;27;44075;-68
2023/06/10 03:30:53;;;;;;;2.20;2.20;;;23.30;66.00;;;;;;5105881;28;43906;-68
2023/06/10 03:33:24;;;;;;;2.77;2.77;;;23.30;66.10;;;;;;5104601;28;43402;-68
2023/06/10 03:35:54;;;;;;;2.47;2.47;;;23.30;66.20;;;;;;5110480;27;43567;-68
2023/06/10 03:38:23;;;;;;;2.30;2.30;;;23.30;66.50;;;;;;5109355;27;44033;-68
2023/06/10 03:40:51;;;;;;;2.40;2.40;;;23.30;66.30;;;;;;5108298;28;43713;-68
2023/06/10 03:43:20;;;;;;;2.10;2.10;;;23.40;66.10;;;;;;5109824;27;43540;-69
2023/06/10 03:45:49;;;;;;;2.50;2.50;;;23.50;65.70;;;;;;5122798;27;43540;-69
2023/06/10 03:48:18;;;;;;;2.40;2.40;;;23.60;65.30;;;;;;5109069;28;45987;-69
2023/06/10 03:50:53;;;;;;;2.50;2.50;;;23.60;65.20;;;;;;5108400;28;43917;-69
2023/06/10 03:53:22;;;;;;;2.60;2.50;;;23.60;65.30;;;;;;5108259;28;43454;-68
2023/06/10 03:55:51;;;;;;;2.40;2.40;;;23.60;65.30;;;;;;5109109;28;43433;-68
2023/06/10 03:58:23;;;;;;;2.70;2.60;;;23.50;65.70;;;;;;5107740;28;45894;-69
2023/06/10 04:00:51;;;;;;;2.47;2.47;;;23.50;65.80;;;;;;5107927;28;44745;-68
2023/06/10 04:03:21;;;;;;;2.40;2.40;;;23.50;65.80;;;;;;5102826;28;44106;-68
2023/06/10 04:05:51;;;;;;;2.40;2.40;;;23.50;65.90;;;;;;5113891;27;43415;-69
2023/06/10 04:08:21;;;;;;;2.50;2.50;;;23.40;66.20;;;;;;5109249;27;43844;-69
2023/06/10 04:10:49;;;;;;;2.30;2.30;;;23.40;66.20;;;;;;5108095;28;45060;-68
2023/06/10 04:13:19;;;;;;;2.53;2.53;;;23.40;66.20;;;;;;5109692;27;43416;-68
2023/06/10 04:15:55;;;;;;;2.70;2.60;;;23.30;66.10;;;;;;5109629;28;43450;-68
2023/06/10 04:18:23;;;;;;;2.40;2.40;;;23.30;66.20;;;;;;5108854;28;45824;-68
2023/06/10 04:20:55;;;;;;;2.30;2.30;;;23.30;66.40;;;;;;5105244;28;44855;-69
2023/06/10 04:23:24;;;;;;;2.53;2.53;;;23.40;66.40;;;;;;5108264;28;43444;-69
2023/06/10 04:25:52;;;;;;;2.30;2.30;;;23.40;66.10;;;;;;5109953;28;43420;-68
2023/06/10 04:28:21;;;;;;;2.40;2.40;;;23.60;65.80;;;;;;5107660;27;43829;-68
2023/06/10 04:30:49;;;;;;;2.13;2.13;;;23.60;65.40;;;;;;5108485;27;43476;-68
2023/06/10 04:33:17;;;;;;;2.53;2.53;;;23.60;65.30;;;;;;5108035;28;44077;-68
2023/06/10 04:35:47;;;;;;;2.30;2.30;;;23.60;65.40;;;;;;5107847;28;43466;-68
2023/06/10 04:38:15;;;;;;;2.47;2.47;;;23.50;65.40;;;;;;5108056;27;43805;-69
2023/06/10 04:40:46;;;;;;;2.50;2.40;;;23.50;65.70;;;;;;5107602;28;43791;-68
2023/06/10 04:43:15;;;;;;;2.20;2.20;;;23.50;65.90;;;;;;5102699;27;43462;-67
2023/06/10 04:45:45;;;;;;;2.30;2.30;;;23.50;65.80;;;;;;5106559;28;43407;-67
2023/06/10 04:48:14;;;;;;;2.27;2.27;;;23.40;66.00;;;;;;5108246;28;45769;-68
2023/06/10 04:50:42;;;;;;;2.20;2.20;;;23.40;66.20;;;;;;5108533;27;44394;-69
2023/06/10 04:53:11;;;;;;;2.20;2.10;;;23.40;66.30;;;;;;5107322;28;43431;-68
2023/06/10 04:55:42;;;;;;;2.50;2.50;;;23.40;66.20;;;;;;5108367;28;43545;-69
2023/06/10 04:58:11;;;;;;;2.30;2.30;;;23.30;66.20;;;;;;5110896;27;43661;-68
2023/06/10 05:00:39;;;;;;;2.20;2.20;;;23.30;66.40;;;;;;5109988;27;43449;-69
2023/06/10 05:03:07;;;;;;;2.23;2.23;;;23.30;66.40;;;;;;5107754;27;43454;-69
2023/06/10 05:05:35;;;;;;;2.50;2.50;;;23.40;66.40;;;;;;5109287;27;43338;-69
2023/06/10 05:08:03;;;;;;;2.23;2.23;;;23.50;66.00;;;;;;5108693;28;43742;-69
2023/06/10 05:10:35;;;;;;;2.50;2.50;;;23.60;65.60;;;;;;5104048;28;43347;-68
2023/06/10 05:13:03;;;;;;;2.20;2.20;;;23.60;65.30;;;;;;5108823;27;43515;-68
2023/06/10 05:15:33;;;;;;;2.30;2.30;;;23.60;65.30;;;;;;5109014;27;43459;-69
2023/06/10 05:18:02;;;;;;;2.40;2.40;;;23.60;65.30;;;;;;5108065;28;43680;-69
2023/06/10 05:20:30;;;;;;;2.30;2.30;;;23.50;65.70;;;;;;5107847;28;43448;-69
2023/06/10 05:22:58;;;;;;;2.40;2.40;;;23.50;65.80;;;;;;5108379;27;43467;-69
2023/06/10 05:25:27;;;;;;;2.30;2.30;;;23.50;65.80;;;;;;5108473;28;43495;-69
2023/06/10 05:27:55;;;;;;;2.20;2.20;;;23.40;65.70;;;;;;5107625;28;43926;-69
2023/06/10 05:30:24;;;;;;;2.40;2.40;;;23.40;66.10;;;;;;5108171;28;43432;-68
2023/06/10 05:32:53;;;;;;;2.40;2.40;;;23.40;66.20;;;;;;5108274;27;43525;-69
2023/06/10 05:35:21;;;;;;;2.50;2.50;;;23.40;66.20;;;;;;5108629;27;43472;-69
2023/06/10 05:37:49;;;;;;;2.37;2.37;;;23.40;66.10;;;;;;5108628;27;43693;-69
2023/06/10 05:40:17;;;;;;;2.50;2.40;;;23.30;66.60;;;;;;5108517;28;43453;-69
2023/06/10 05:42:45;;;;;;;2.53;2.53;;;23.30;66.30;;;;;;5107532;27;43373;-69
2023/06/10 05:45:13;;;;;;;4.13;2.40;;;23.30;66.20;;;;;;5107508;27;43418;-69
2023/06/10 05:47:41;;;;;;;2.30;2.20;;;23.40;66.00;;;;;;5107444;27;43602;-69
2023/06/10 05:50:11;;;;;;;2.20;2.20;;;23.50;65.60;;;;;;5106368;28;43932;-69
2023/06/10 05:52:40;;;;;;;2.53;2.53;;;23.60;65.30;;;;;;5100513;28;43420;-69
2023/06/10 05:55:09;;;;;;;2.43;2.33;;;23.60;65.20;;;;;;5105986;27;43417;-68
2023/06/10 05:57:37;;;;;;;2.83;2.60;;;23.60;64.70;;;;;;5105922;28;43628;-68
2023/06/10 06:00:06;;;;;;;2.20;2.20;;;23.50;65.10;;;;;;5106460;28;44068;-69
2023/06/10 06:02:39;;;;;;;2.73;2.63;;;23.50;65.60;;;;;;5102953;27;43371;-69
2023/06/10 06:05:08;;;;;;;2.60;2.60;;;23.40;65.30;;;;;;5107460;27;43482;-69
2023/06/10 06:07:38;;;;;;;2.40;2.40;;;23.40;65.20;;;;;;5107338;28;43615;-68
2023/06/10 06:10:07;;;;;;;2.30;2.30;;;23.40;65.30;;;;;;5107781;27;43390;-69
2023/06/10 06:12:34;;;;;;;2.70;2.60;;;23.40;65.70;;;;;;5108185;27;43382;-69
2023/06/10 06:15:03;;;;;;;2.40;2.40;;;23.30;65.80;;;;;;5107823;28;43462;-68
2023/06/10 06:17:31;;;;;;;2.83;2.63;;;23.30;65.30;;;;;;5107532;27;43937;-68
2023/06/10 06:19:58;;;;;;;2.23;2.23;;;23.30;65.50;;;;;;5107494;27;43733;-68
2023/06/10 06:22:27;;;;;;;2.80;2.80;;;23.30;65.90;;;;;;5107256;27;43356;-69
2023/06/10 06:24:56;;;;;;;2.83;2.83;;;23.20;66.10;;;;;;5107822;27;43442;-69
2023/06/10 06:27:27;;;;;;;2.60;2.60;;;23.20;65.70;;;;;;5107738;27;43859;-69
2023/06/10 06:29:55;;;;;;;2.50;2.50;;;23.30;65.70;;;;;;5107511;27;43433;-69
2023/06/10 06:32:24;;;;;;;2.60;2.60;;;23.30;65.90;;;;;;5101868;28;43493;-69
2023/06/10 06:34:54;;;;;;;2.90;2.90;;;23.20;66.10;;;;;;5101141;28;43451;-69
2023/06/10 06:37:22;;;;;;;2.40;2.40;;;23.20;66.30;;;;;;5103561;27;43700;-68
2023/06/10 06:39:58;;;;;;;2.70;2.70;;;23.30;66.20;;;;;;5100737;28;43337;-67
2023/06/10 06:42:30;;;;;;;2.67;2.67;;;23.40;65.80;;;;;;5103407;28;43382;-68
2023/06/10 06:45:05;;;;;;;2.50;2.50;;;23.50;65.20;;;;;;5102673;28;43395;-67
2023/06/10 06:47:33;;;;;;;2.83;2.73;;;23.60;65.10;;;;;;5100255;27;44095;-68
2023/06/10 06:50:01;;;;;;;2.37;2.37;;;23.60;64.90;;;;;;5098208;28;43566;-68
2023/06/10 06:52:29;;;;;;;2.50;2.50;;;23.50;64.30;;;;;;5097879;27;43403;-68
2023/06/10 06:54:59;;;;;;;2.77;2.77;;;23.50;65.00;;;;;;5103175;28;43736;-68
2023/06/10 06:57:27;;;;;;;2.80;2.80;;;23.40;65.50;;;;;;5105657;28;43670;-67
2023/06/10 06:59:55;;;;;;;2.90;2.70;;;23.40;64.90;;;;;;5105562;28;43363;-67
2023/06/10 07:02:23;;;;;;;2.67;2.57;;;23.40;65.30;;;;;;5106190;27;43400;-67
2023/06/10 07:04:51;;;;;;;3.00;2.90;;;23.30;65.20;;;;;;5106583;27;43491;-67
2023/06/10 07:07:19;;;;;;;3.00;2.83;;;23.30;65.70;;;;;;5105491;27;43734;-67
2023/06/10 07:09:47;;;;;;;2.93;2.90;;;23.30;65.70;;;;;;5106276;27;43402;-67
2023/06/10 07:12:17;;;;;;;2.70;2.70;;;23.30;65.70;;;;;;5105722;27;43504;-68
2023/06/10 07:14:45;;;;;;;2.70;2.70;;;23.30;65.60;;;;;;5106258;27;43431;-67
2023/06/10 07:17:13;;;;;;;2.73;2.73;;;23.30;65.80;;;;;;5102481;28;43583;-68
2023/06/10 07:19:41;;;;;;;2.80;2.80;;;23.20;66.10;;;;;;5105778;28;43385;-67
2023/06/10 07:22:09;;;;;;;2.90;2.90;;;23.30;65.80;;;;;;5106181;28;43452;-68
2023/06/10 07:24:37;;;;;;;2.90;2.90;;;23.40;65.50;;;;;;5109173;27;43443;-68
2023/06/10 07:27:06;;;;;;;3.20;3.20;;;23.50;65.10;;;;;;5100460;27;43651;-67
2023/06/10 07:29:36;;;;;;;2.73;2.73;;;23.60;65.10;;;;;;5101316;28;43505;-67
2023/06/10 07:32:05;;;;;;;2.80;2.80;;;23.50;64.80;;;;;;5103450;28;43453;-67
2023/06/10 07:34:33;;;;;;;2.87;2.77;;;23.50;64.60;;;;;;5103694;27;43439;-68
2023/06/10 07:37:01;;;;;;;3.40;3.13;;;23.50;65.10;;;;;;5107724;28;43599;-68
2023/06/10 07:39:28;;;;;;;3.10;3.00;;;23.40;65.40;;;;;;5106231;28;43418;-68
2023/06/10 07:41:57;;;;;;;3.53;3.23;;;23.40;65.50;;;;;;5103205;27;43387;-68
2023/06/10 07:44:25;;;;;;;3.30;3.10;;;23.30;65.60;;;;;;5104712;27;43390;-68
2023/06/10 07:46:55;;;;;;;7.70;3.40;;;23.30;65.60;;;;;;5096224;27;44931;-68
2023/06/10 07:49:23;;;;;;;4.03;3.10;;;23.30;65.90;;;;;;5107561;27;43391;-69
2023/06/10 07:51:51;;;;;;;3.40;3.20;;;23.30;65.80;;;;;;5108765;27;43443;-69
2023/06/10 07:54:19;;;;;;;3.50;3.40;;;23.30;65.80;;;;;;5109392;27;43503;-69
2023/06/10 07:56:47;;;;;;;3.20;3.00;;;23.20;65.60;;;;;;5108168;27;45489;-69
2023/06/10 07:59:17;;;;;;;4.10;3.67;;;23.20;66.10;;;;;;5107896;27;43323;-68
2023/06/10 08:01:44;;;;;;;7.17;3.60;;;23.20;66.10;;;;;;5107292;28;43407;-68
2023/06/10 08:04:14;;;;;;;4.70;4.30;;;23.30;65.70;;;;;;5108534;27;43449;-68
2023/06/10 08:06:42;;;;;;;8.87;4.40;;;23.40;65.20;;;;;;5106158;27;43602;-68
2023/06/10 08:09:10;;;;;;;7.30;4.20;;;23.50;64.90;;;;;;5108991;28;43404;-68
2023/06/10 08:11:38;;;;;;;4.90;4.00;;;23.60;65.00;;;;;;5103086;28;43407;-68
2023/06/10 08:14:06;;;;;;;5.27;4.13;;;23.50;65.10;;;;;;5109542;27;43325;-68
2023/06/10 08:16:34;;;;;;;5.30;3.97;;;23.50;65.20;;;;;;5109151;27;43776;-68
2023/06/10 08:19:02;;;;;;;8.30;4.33;;;23.40;65.50;;;;;;5109278;27;43449;-68
2023/06/10 08:21:31;;;;;;;6.13;4.40;;;23.40;65.60;;;;;;5112468;27;43394;-67
2023/06/10 08:23:59;;;;;;;7.47;4.17;;;23.30;65.40;;;;;;5112941;28;43414;-68
2023/06/10 08:26:27;;;;;;;7.43;4.47;;;23.30;65.60;;;;;;5112519;27;43559;-68
2023/06/10 08:28:55;;;;;;;9.73;4.67;;;23.30;65.90;;;;;;5112411;27;43387;-68
2023/06/10 08:31:23;;;;;;;5.23;4.13;;;23.20;66.00;;;;;;5105486;27;43457;-68
2023/06/10 08:33:51;;;;;;;4.40;4.00;;;23.30;66.00;;;;;;5107018;28;43458;-67
2023/06/10 08:36:19;;;;;;;5.03;4.53;;;23.20;65.80;;;;;;5109152;27;43986;-68
2023/06/10 08:38:48;;;;;;;6.43;4.30;;;23.20;65.80;;;;;;5099722;28;43477;-68
2023/06/10 08:41:18;;;;;;;5.97;4.43;;;23.20;66.10;;;;;;5104775;27;43380;-69
2023/06/10 08:43:48;;;;;;;4.50;4.20;;;23.20;66.10;;;;;;5117298;27;43296;-68
2023/06/10 08:46:16;;;;;;;5.83;4.17;;;23.30;65.90;;;;;;5109593;28;43733;-68
2023/06/10 08:48:44;;;;;;;4.60;4.20;;;23.40;65.60;;;;;;5107016;27;43457;-68
2023/06/10 08:51:12;;;;;;;7.27;4.57;;;23.50;65.10;;;;;;5111524;27;43482;-68
2023/06/10 08:53:44;;;;;;;4.90;4.50;;;23.50;64.80;;;;;;5111814;28;43516;-69
2023/06/10 08:56:14;;;;;;;4.80;4.40;;;23.50;64.80;;;;;;5112140;28;44121;-68
2023/06/10 08:58:43;;;;;;;5.73;4.40;;;23.50;65.10;;;;;;5105694;28;43359;-68
2023/06/10 09:01:11;;;;;;;4.47;4.07;;;23.40;65.30;;;;;;5110584;27;43332;-68
2023/06/10 09:03:39;;;;;;;4.80;4.03;;;23.40;65.40;;;;;;5111304;27;43510;-68
2023/06/10 09:06:07;;;;;;;4.67;4.20;;;23.40;65.40;;;;;;5110914;27;43860;-69
2023/06/10 09:08:35;;;;;;;4.17;3.87;;;23.30;65.40;;;;;;5111562;28;43312;-69
2023/06/10 09:11:03;;;;;;;4.20;3.90;;;23.30;65.70;;;;;;5110794;27;43455;-69
2023/06/10 09:13:33;;;;;;;5.10;4.20;;;23.30;65.90;;;;;;5108576;28;43395;-69
2023/06/10 09:16:02;;;;;;;4.47;4.07;;;23.30;65.80;;;;;;5111215;27;43693;-69
2023/06/10 09:18:31;;;;;;;4.33;4.03;;;23.30;65.80;;;;;;5106859;28;43947;-69
2023/06/10 09:20:59;;;;;;;4.63;4.23;;;23.20;65.70;;;;;;5111077;28;43411;-69
2023/06/10 09:23:27;;;;;;;4.53;4.13;;;23.20;66.10;;;;;;5111461;28;43315;-68
2023/06/10 09:25:58;;;;;;;3.70;3.50;;;23.20;66.10;;;;;;5110877;27;44003;-68
2023/06/10 09:28:26;;;;;;;4.00;3.80;;;23.20;66.10;;;;;;5111295;28;43436;-68
2023/06/10 09:31:04;;;;;;;4.33;3.93;;;23.20;66.00;;;;;;5109409;27;43363;-69
2023/06/10 09:33:32;;;;;;;4.13;3.93;;;23.20;66.20;;;;;;5110445;27;43433;-68
2023/06/10 09:36:02;;;;;;;3.90;3.53;;;23.20;66.40;;;;;;5109394;28;43770;-69
2023/06/10 09:38:31;;;;;;;4.50;4.10;;;23.30;66.20;;;;;;5109601;27;43469;-69
2023/06/10 09:40:59;;;;;;;4.87;4.47;;;23.40;65.90;;;;;;5110348;27;43478;-68
2023/06/10 09:43:39;;;;;;;5.53;4.50;;;23.50;65.60;;;;;;5110577;27;43390;-69
2023/06/10 09:46:15;;;;;;;4.83;4.43;;;23.60;65.20;;;;;;5110392;27;43792;-69
2023/06/10 09:48:44;;;;;;;4.47;3.87;;;23.60;65.30;;;;;;5109220;27;43514;-68
2023/06/10 09:51:13;;;;;;;5.43;5.00;;;23.50;65.30;;;;;;5108486;27;43438;-68
2023/06/10 09:53:41;;;;;;;7.17;5.87;;;23.50;65.60;;;;;;5107682;28;43456;-68
2023/06/10 09:56:09;;;;;;;10.73;6.13;;;23.50;65.90;;;;;;5108705;28;45963;-68
2023/06/10 09:58:38;;;;;;;6.43;5.80;;;23.40;65.90;;;;;;5109867;28;43400;-69
2023/06/10 10:01:06;;;;;;;7.17;5.97;;;23.40;65.90;;;;;;5110357;28;43448;-69
2023/06/10 10:03:43;;;;;;;9.40;6.80;;;23.40;65.80;;;;;;5109506;28;43486;-68
2023/06/10 10:06:12;;;;;;;6.90;6.20;;;23.40;66.30;;;;;;5109215;28;43747;-69
2023/06/10 10:08:40;;;;;;;8.53;6.83;;;23.40;66.40;;;;;;5108294;28;43490;-68
2023/06/10 10:11:08;;;;;;;6.97;6.27;;;23.30;66.20;;;;;;5109400;27;43449;-69
2023/06/10 10:13:36;;;;;;;13.97;6.77;;;23.30;66.00;;;;;;5110287;28;43621;-68
2023/06/10 10:16:07;;;;;;;10.93;6.20;;;23.30;66.60;;;;;;5108763;28;45671;-69
2023/06/10 10:18:37;;;;;;;7.53;6.13;;;23.30;66.90;;;;;;5108478;27;43446;-68
2023/06/10 10:21:06;;;;;;;7.93;6.60;;;23.40;66.70;;;;;;5110222;27;43425;-68
2023/06/10 10:23:42;;;;;;;7.53;5.90;;;23.50;66.40;;;;;;5110935;28;43380;-68
2023/06/10 10:26:11;;;;;;;7.03;6.37;;;23.60;66.00;;;;;;5110145;27;43857;-69
2023/06/10 10:28:42;;;;;;;7.33;6.07;;;23.60;65.90;;;;;;5108265;28;43396;-69
2023/06/10 10:31:11;;;;;;;6.27;5.50;;;23.60;65.90;;;;;;5109584;27;43933;-69
2023/06/10 10:33:47;;;;;;;6.00;5.40;;;23.60;65.90;;;;;;5109966;27;43983;-68
2023/06/10 10:36:15;;;;;;;7.50;5.70;;;23.50;66.20;;;;;;5102187;28;44074;-68
2023/06/10 10:38:43;;;;;;;7.83;5.37;;;23.50;66.30;;;;;;5109275;27;43991;-69
2023/06/10 10:41:11;;;;;;;6.07;5.63;;;23.50;66.30;;;;;;5110068;27;43364;-68
2023/06/10 10:43:39;;;;;;;5.87;5.47;;;23.40;66.30;;;;;;5109716;28;43388;-69
2023/06/10 10:46:13;;;;;;;7.13;5.63;;;23.40;66.60;;;;;;5109054;28;43684;-67
2023/06/10 10:48:42;;;;;;;5.77;5.27;;;23.40;66.60;;;;;;5109937;27;43412;-68
2023/06/10 10:51:11;;;;;;;5.67;5.23;;;23.40;66.60;;;;;;5109505;28;43486;-68
2023/06/10 10:53:39;;;;;;;6.27;5.47;;;23.40;66.50;;;;;;5110611;27;43364;-69
2023/06/10 10:56:08;;;;;;;5.67;5.20;;;23.30;67.20;;;;;;5109073;28;43662;-69
2023/06/10 10:58:39;;;;;;;5.87;5.20;;;23.30;66.70;;;;;;5109065;27;43366;-69
2023/06/10 11:01:14;;;;;;;5.47;5.10;;;23.40;66.70;;;;;;5102475;28;43449;-69
2023/06/10 11:03:47;;;;;;;6.50;5.07;;;23.50;66.50;;;;;;5105697;27;43612;-69
2023/06/10 11:06:16;;;;;;;5.90;5.30;;;23.50;66.10;;;;;;5108893;27;43821;-68
2023/06/10 11:08:48;;;;;;;5.47;4.97;;;23.60;66.00;;;;;;5099909;27;43497;-68
2023/06/10 11:11:20;;;;;;;5.83;5.33;;;23.60;65.90;;;;;;5099934;28;43421;-68
2023/06/10 11:14:06;;;;;;;5.70;5.20;;;23.60;65.90;;;;;;5099452;28;43386;-68
2023/06/10 11:16:39;;;;;;;5.70;5.03;;;23.50;66.20;;;;;;5100507;28;43880;-68
2023/06/10 11:19:09;;;;;;;4.63;4.33;;;23.50;66.30;;;;;;5102048;28;43433;-68
2023/06/10 11:22:00;;;;;;;4.90;4.40;;;23.40;66.30;;;;;;5101025;28;43321;-68
2023/06/10 11:24:29;;;;;;;5.10;4.80;;;23.40;66.20;;;;;;5099774;28;43389;-68
2023/06/10 11:27:21;;;;;;;5.20;4.70;;;23.40;66.40;;;;;;5099911;27;43651;-68
2023/06/10 11:30:19;;;;;;;4.80;4.50;;;23.40;66.60;;;;;;5102471;28;43459;-68
2023/06/10 11:32:52;;;;;;;5.90;4.50;;;23.40;66.60;;;;;;5100625;28;43761;-67
2023/06/10 11:35:24;;;;;;;4.70;4.40;;;23.40;66.50;;;;;;5100384;27;43355;-68
2023/06/10 11:37:52;;;;;;;5.23;4.83;;;23.30;66.60;;;;;;5103113;28;43770;-68
2023/06/10 11:40:20;;;;;;;4.80;4.50;;;23.30;66.70;;;;;;5100641;27;43446;-68
2023/06/10 11:42:48;;;;;;;4.83;4.53;;;23.30;66.60;;;;;;5102244;27;44068;-68
2023/06/10 11:45:17;;;;;;;4.50;4.30;;;23.30;66.60;;;;;;5101856;28;43959;-68
2023/06/10 11:47:57;;;;;;;4.73;4.37;;;23.30;66.50;;;;;;5099514;27;43611;-67
2023/06/10 11:50:33;;;;;;;4.20;4.00;;;23.30;66.80;;;;;;5103933;28;43496;-68
2023/06/10 11:53:01;;;;;;;4.50;4.20;;;23.30;66.80;;;;;;5101137;27;43386;-68
2023/06/10 11:55:42;;;;;;;4.53;4.30;;;23.40;66.60;;;;;;5105937;27;43541;-68
2023/06/10 11:58:14;;;;;;;4.20;4.00;;;23.50;66.30;;;;;;5104325;27;43598;-68
2023/06/10 12:00:46;;;;;;;4.43;4.23;;;23.60;65.90;;;;;;5105169;27;43401;-68
2023/06/10 12:03:14;;;;;;;4.37;4.17;;;23.60;65.90;;;;;;5104201;28;43379;-68
2023/06/10 12:05:58;;;;;;;4.30;4.10;;;23.60;65.80;;;;;;5109091;27;43651;-68
2023/06/10 12:08:27;;;;;;;4.30;4.10;;;23.60;65.90;;;;;;5105976;28;43860;-67
2023/06/10 12:10:55;;;;;;;4.20;4.00;;;23.50;66.20;;;;;;5104214;28;43524;-68
2023/06/10 12:13:23;;;;;;;4.40;4.10;;;23.50;66.20;;;;;;5109245;28;43450;-68
2023/06/10 12:15:51;;;;;;;4.13;3.93;;;23.50;66.30;;;;;;5106700;28;43389;-68
2023/06/10 12:18:19;;;;;;;4.20;4.00;;;23.40;66.10;;;;;;5105476;27;43795;-67
2023/06/10 12:20:48;;;;;;;4.33;4.13;;;23.40;66.40;;;;;;5105552;27;43449;-68
2023/06/10 12:23:17;;;;;;;3.70;3.60;;;23.30;66.40;;;;;;5102178;28;43441;-67
2023/06/10 12:25:51;;;;;;;4.10;3.90;;;23.40;66.50;;;;;;5104267;27;43402;-69
2023/06/10 12:28:21;;;;;;;4.13;3.93;;;23.30;66.30;;;;;;5099351;27;43599;-68
2023/06/10 12:30:49;;;;;;;3.73;3.63;;;23.30;66.60;;;;;;5104755;28;43331;-68
2023/06/10 12:33:17;;;;;;;4.13;3.90;;;23.30;67.40;;;;;;5102401;28;43438;-68
2023/06/10 12:35:49;;;;;;;4.10;4.00;;;23.30;66.60;;;;;;5111605;27;43419;-69
2023/06/10 12:38:24;;;;;;;4.13;3.93;;;23.30;66.50;;;;;;5108000;28;46143;-69
2023/06/10 12:40:52;;;;;;;4.10;3.90;;;23.30;66.40;;;;;;5109124;28;43381;-68
2023/06/10 12:43:23;;;;;;;4.17;3.97;;;23.30;66.90;;;;;;5110440;28;43373;-68
2023/06/10 12:45:51;;;;;;;3.70;3.50;;;23.30;66.70;;;;;;5111900;27;43373;-68
2023/06/10 12:48:20;;;;;;;3.70;3.60;;;23.40;66.50;;;;;;5114534;27;44018;-68
2023/06/10 12:50:52;;;;;;;3.83;3.73;;;23.50;66.20;;;;;;5110327;27;43418;-69
2023/06/10 12:53:20;;;;;;;3.53;3.43;;;23.60;65.80;;;;;;5110460;27;43501;-69
2023/06/10 12:55:50;;;;;;;3.67;3.47;;;23.60;65.60;;;;;;5111240;27;43400;-69
2023/06/10 12:58:18;;;;;;;3.90;3.60;;;23.60;65.60;;;;;;5109715;28;43739;-68